createdAt,value
2022-12-28T00:01:28.219Z,3.55
2022-12-28T00:03:55.192Z,3.50
2022-12-28T00:06:24.160Z,3.50
2022-12-28T00:08:56.399Z,3.64
2022-12-28T00:11:25.524Z,3.59
2022-12-28T00:13:56.122Z,3.57
2022-12-28T00:16:27.987Z,3.63
2022-12-28T00:18:55.693Z,3.67
2022-12-28T00:21:22.519Z,3.73
2022-12-28T00:23:52.901Z,3.74
2022-12-28T00:26:20.209Z,3.84
2022-12-28T00:28:47.895Z,3.87
2022-12-28T00:31:15.003Z,3.82
2022-12-28T00:33:41.956Z,3.90
2022-12-28T00:36:12.112Z,4.03
2022-12-28T00:38:38.710Z,4.01
2022-12-28T00:41:06.262Z,4.06
2022-12-28T00:43:32.942Z,4.12
2022-12-28T00:45:59.547Z,4.12
2022-12-28T00:48:26.108Z,4.07
2022-12-28T00:50:52.685Z,4.20
2022-12-28T00:53:19.100Z,4.13
2022-12-28T00:55:45.450Z,4.18
2022-12-28T00:58:11.896Z,4.28
2022-12-28T01:00:39.150Z,4.23
2022-12-28T01:03:05.644Z,4.35
2022-12-28T01:05:32.040Z,4.33
2022-12-28T01:07:58.423Z,4.35
2022-12-28T01:10:24.981Z,4.32
2022-12-28T01:12:51.418Z,4.36
2022-12-28T01:15:17.928Z,4.35
2022-12-28T01:17:44.394Z,4.39
2022-12-28T01:20:11.184Z,4.41
2022-12-28T01:22:37.583Z,4.35
2022-12-28T01:25:04.817Z,4.38
2022-12-28T01:27:32.246Z,4.33
2022-12-28T01:29:58.619Z,4.37
2022-12-28T01:32:25.110Z,4.41
2022-12-28T01:34:51.462Z,4.43
2022-12-28T01:37:18.569Z,4.52
2022-12-28T01:39:44.944Z,4.51
2022-12-28T01:42:17.052Z,4.53
2022-12-28T01:44:49.191Z,4.62
2022-12-28T01:47:33.659Z,4.55
2022-12-28T01:50:09.904Z,4.58
2022-12-28T01:52:44.857Z,4.63
2022-12-28T01:55:16.642Z,4.65
2022-12-28T01:57:48.318Z,4.66
2022-12-28T02:05:15.536Z,4.65
2022-12-28T02:07:51.249Z,4.69
2022-12-28T02:10:42.447Z,4.70
2022-12-28T02:13:05.733Z,4.68
2022-12-28T02:15:32.336Z,4.74
2022-12-28T02:17:59.404Z,4.80
2022-12-28T02:20:34.306Z,4.73
2022-12-28T02:23:09.743Z,4.76
2022-12-28T02:25:59.651Z,4.78
2022-12-28T02:29:14.205Z,4.82
2022-12-28T02:31:47.676Z,4.84
2022-12-28T02:34:43.318Z,4.76
2022-12-28T02:37:16.727Z,4.79
2022-12-28T02:39:54.958Z,4.82
2022-12-28T02:42:23.360Z,4.84
2022-12-28T02:45:08.416Z,4.81
2022-12-28T02:47:53.659Z,4.87
2022-12-28T02:50:20.811Z,4.87
2022-12-28T02:52:59.320Z,4.88
2022-12-28T02:55:56.017Z,4.90
2022-12-28T02:58:31.173Z,4.87
2022-12-28T03:01:06.755Z,4.95
2022-12-28T03:04:09.711Z,4.97
2022-12-28T03:07:15.492Z,4.94
2022-12-28T03:09:48.417Z,5.04
2022-12-28T03:12:32.508Z,5.00
2022-12-28T03:15:11.479Z,5.07
2022-12-28T03:18:00.179Z,5.06
2022-12-28T03:20:49.431Z,5.06
2022-12-28T03:23:41.866Z,5.10
2022-12-28T03:26:30.606Z,5.09
2022-12-28T03:29:19.404Z,5.08
2022-12-28T03:31:46.168Z,5.22
2022-12-28T03:34:14.472Z,5.17
2022-12-28T03:37:10.485Z,5.24
2022-12-28T03:39:56.652Z,5.18
2022-12-28T03:42:45.551Z,5.33
2022-12-28T03:45:45.360Z,5.35
2022-12-28T03:48:15.649Z,5.39
2022-12-28T03:50:45.614Z,5.38
2022-12-28T03:53:12.121Z,5.41
2022-12-28T03:55:39.722Z,5.43
2022-12-28T03:58:06.951Z,5.49
2022-12-28T04:00:33.472Z,5.48
2022-12-28T04:02:59.966Z,5.54
2022-12-28T04:05:26.404Z,5.53
2022-12-28T04:07:53.343Z,5.64
2022-12-28T04:10:19.701Z,5.65
2022-12-28T04:12:46.133Z,5.67
2022-12-28T04:15:12.601Z,5.63
2022-12-28T04:17:39.021Z,5.68
2022-12-28T04:20:06.132Z,5.68
2022-12-28T04:22:32.599Z,5.73
2022-12-28T04:24:58.944Z,5.70
2022-12-28T04:27:27.045Z,5.72
2022-12-28T04:29:53.446Z,5.74
2022-12-28T04:32:19.929Z,5.77
2022-12-28T04:34:48.696Z,5.78
2022-12-28T04:37:15.551Z,5.87
2022-12-28T04:39:55.203Z,5.87
2022-12-28T04:42:26.959Z,5.81
2022-12-28T04:44:53.322Z,5.82
2022-12-28T04:47:19.730Z,5.90
2022-12-28T04:49:46.262Z,5.90
2022-12-28T04:52:12.731Z,5.95
2022-12-28T04:54:39.124Z,5.87
2022-12-28T04:57:06.608Z,5.89
2022-12-28T04:59:32.997Z,5.93
2022-12-28T05:01:59.531Z,5.93
2022-12-28T05:04:25.993Z,5.90
2022-12-28T05:06:52.377Z,5.99
2022-12-28T05:09:19.362Z,5.96
2022-12-28T05:11:46.896Z,5.97
2022-12-28T05:14:13.373Z,5.93
2022-12-28T05:16:39.807Z,5.92
2022-12-28T05:19:06.261Z,5.96
2022-12-28T05:21:32.812Z,6.01
2022-12-28T05:23:59.438Z,6.10
2022-12-28T05:26:29.012Z,6.03
2022-12-28T05:28:58.883Z,6.06
2022-12-28T05:31:26.129Z,6.11
2022-12-28T05:33:53.689Z,6.10
2022-12-28T05:36:26.956Z,6.06
2022-12-28T05:38:54.767Z,6.08
2022-12-28T05:41:23.631Z,6.12
2022-12-28T05:43:50.883Z,6.14
2022-12-28T05:46:24.519Z,6.16
2022-12-28T05:48:51.529Z,6.16
2022-12-28T05:51:20.379Z,6.26
2022-12-28T05:53:47.533Z,6.32
2022-12-28T05:56:15.193Z,6.34
2022-12-28T05:58:45.978Z,6.36
2022-12-28T06:01:18.492Z,6.40
2022-12-28T06:03:47.129Z,6.42
2022-12-28T06:06:17.447Z,6.38
2022-12-28T06:08:44.923Z,6.44
2022-12-28T06:11:13.912Z,6.49
2022-12-28T06:13:40.803Z,6.61
2022-12-28T06:16:09.258Z,6.55
2022-12-28T06:18:36.463Z,6.57
2022-12-28T06:21:10.074Z,6.60
2022-12-28T06:23:37.020Z,6.59
2022-12-28T06:26:06.356Z,6.65
2022-12-28T06:28:33.640Z,6.72
2022-12-28T06:31:07.679Z,6.77
2022-12-28T06:33:34.834Z,6.82
2022-12-28T06:36:01.703Z,6.86
2022-12-28T06:38:31.049Z,6.80
2022-12-28T06:41:13.224Z,6.81
2022-12-28T06:43:41.884Z,6.84
2022-12-28T06:46:09.094Z,6.90
2022-12-28T06:48:36.580Z,6.88
2022-12-28T06:51:04.712Z,6.97
2022-12-28T06:53:34.589Z,6.96
2022-12-28T06:56:04.100Z,7.04
2022-12-28T06:58:31.219Z,7.07
2022-12-28T07:01:04.999Z,7.13
2022-12-28T07:03:31.437Z,7.06
2022-12-28T07:06:01.782Z,7.11
2022-12-28T07:08:28.535Z,7.08
2022-12-28T07:10:55.036Z,7.10
2022-12-28T07:13:26.284Z,7.06
2022-12-28T07:15:54.644Z,7.07
2022-12-28T07:18:20.995Z,7.03
2022-12-28T07:20:47.365Z,7.05
2022-12-28T07:23:13.806Z,7.09
2022-12-28T07:25:40.171Z,7.05
2022-12-28T07:28:06.555Z,7.00
2022-12-28T07:30:33.042Z,7.03
2022-12-28T07:32:59.527Z,7.03
2022-12-28T07:35:26.160Z,7.06
2022-12-28T07:37:54.150Z,7.08
2022-12-28T07:40:20.487Z,7.09
2022-12-28T07:42:46.842Z,7.03
2022-12-28T07:45:13.248Z,7.04
2022-12-28T07:47:39.885Z,7.09
2022-12-28T07:50:06.852Z,7.09
2022-12-28T07:52:36.462Z,7.08
2022-12-28T07:55:03.312Z,7.11
2022-12-28T07:57:29.712Z,7.12
2022-12-28T07:59:56.114Z,7.09
2022-12-28T08:02:22.532Z,7.06
2022-12-28T08:04:52.233Z,7.08
2022-12-28T08:07:19.226Z,7.11
2022-12-28T08:09:45.659Z,7.13
2022-12-28T08:12:12.058Z,7.12
2022-12-28T08:14:38.392Z,7.17
2022-12-28T08:17:04.799Z,7.16
2022-12-28T08:19:31.241Z,7.16
2022-12-28T08:21:57.628Z,7.16
2022-12-28T08:24:24.207Z,7.21
2022-12-28T08:26:50.852Z,7.16
2022-12-28T08:29:21.038Z,7.22
2022-12-28T08:31:48.068Z,7.31
2022-12-28T08:34:17.331Z,7.36
2022-12-28T08:36:43.768Z,7.28
2022-12-28T08:39:10.463Z,7.29
2022-12-28T08:41:37.375Z,7.34
2022-12-28T08:44:03.943Z,7.42
2022-12-28T08:46:32.883Z,7.50
2022-12-28T08:49:00.746Z,7.48
2022-12-28T08:51:31.721Z,7.54
2022-12-28T08:53:58.736Z,7.50
2022-12-28T08:56:35.784Z,7.63
2022-12-28T08:59:03.649Z,7.62
2022-12-28T09:01:37.323Z,7.65
2022-12-28T09:04:09.292Z,7.68
2022-12-28T09:06:37.754Z,7.73
2022-12-28T09:09:07.315Z,7.76
2022-12-28T09:11:35.503Z,7.75
2022-12-28T09:14:03.941Z,7.72
2022-12-28T09:16:30.791Z,7.76
2022-12-28T09:19:00.128Z,7.80
2022-12-28T09:21:31.440Z,7.87
2022-12-28T09:23:57.905Z,7.86
2022-12-28T09:26:26.757Z,7.85
2022-12-28T09:28:59.922Z,7.91
2022-12-28T09:31:29.246Z,7.90
2022-12-28T09:34:34.219Z,7.94
2022-12-28T09:36:45.389Z,7.94
2022-12-28T09:39:20.650Z,7.98
2022-12-28T09:41:55.327Z,8.04
2022-12-28T09:44:37.016Z,7.98
2022-12-28T09:47:28.865Z,7.98
2022-12-28T09:50:17.350Z,7.93
2022-12-28T09:53:04.397Z,7.97
2022-12-28T09:55:33.329Z,8.05
2022-12-28T09:58:01.081Z,7.99
2022-12-28T10:00:37.445Z,8.07
2022-12-28T10:03:11.864Z,8.11
2022-12-28T10:05:38.308Z,8.07
2022-12-28T10:08:05.164Z,8.11
2022-12-28T10:10:31.974Z,8.21
2022-12-28T10:13:36.996Z,8.17
2022-12-28T10:15:59.343Z,8.25
2022-12-28T10:18:28.103Z,8.26
2022-12-28T10:20:55.705Z,8.31
2022-12-28T10:23:29.721Z,8.42
2022-12-28T10:25:58.667Z,8.55
2022-12-28T10:28:30.015Z,8.51
2022-12-28T10:31:08.460Z,8.53
2022-12-28T10:33:40.290Z,8.64
2022-12-28T10:36:14.959Z,8.69
2022-12-28T10:38:44.094Z,8.76
2022-12-28T10:41:15.715Z,8.76
2022-12-28T10:44:14.670Z,8.86
2022-12-28T10:46:53.862Z,8.90
2022-12-28T10:49:21.494Z,8.94
2022-12-28T10:52:03.297Z,8.90
2022-12-28T10:54:36.114Z,8.94
2022-12-28T10:57:02.977Z,9.05
2022-12-28T10:59:31.148Z,9.01
2022-12-28T11:02:30.446Z,8.96
2022-12-28T11:05:02.332Z,9.04
2022-12-28T11:07:30.465Z,9.16
2022-12-28T11:10:15.446Z,9.10
2022-12-28T11:12:44.392Z,9.00
2022-12-28T11:15:16.605Z,9.07
2022-12-28T11:17:44.449Z,9.06
2022-12-28T11:20:18.594Z,9.06
2022-12-28T11:22:46.251Z,9.11
2022-12-28T11:25:22.184Z,9.01
2022-12-28T11:27:49.414Z,9.10
2022-12-28T11:30:18.402Z,9.05
2022-12-28T11:32:51.310Z,8.99
2022-12-28T11:35:29.924Z,8.91
2022-12-28T11:38:00.688Z,8.94
2022-12-28T11:40:46.487Z,8.90
2022-12-28T11:43:28.409Z,8.81
2022-12-28T11:46:00.509Z,8.80
2022-12-28T11:48:42.395Z,8.70
2022-12-28T11:51:15.849Z,8.78
2022-12-28T11:53:44.992Z,8.71
2022-12-28T11:56:14.172Z,8.71
2022-12-28T11:58:40.513Z,8.69
2022-12-28T12:01:45.532Z,8.61
2022-12-28T12:04:40.080Z,8.69
2022-12-28T12:07:14.196Z,8.72
2022-12-28T12:09:44.189Z,8.70
2022-12-28T12:12:17.939Z,8.70
2022-12-28T12:14:49.068Z,8.64
2022-12-28T12:17:45.240Z,8.61
2022-12-28T12:20:23.463Z,8.53
2022-12-28T12:22:56.293Z,8.55
2022-12-28T12:25:42.576Z,8.51
2022-12-28T12:28:27.603Z,8.44
2022-12-28T12:30:55.263Z,8.56
2022-12-28T12:33:34.149Z,8.51
2022-12-28T12:36:15.800Z,8.50
2022-12-28T12:38:51.178Z,8.47
2022-12-28T12:41:29.456Z,8.57
2022-12-28T12:44:09.365Z,8.56
2022-12-28T12:46:53.651Z,8.54
2022-12-28T12:49:38.229Z,8.46
2022-12-28T12:52:32.434Z,8.38
2022-12-28T12:55:18.214Z,8.39
2022-12-28T12:58:02.099Z,8.37
2022-12-28T13:00:49.588Z,8.36
2022-12-28T13:03:29.646Z,8.37
2022-12-28T13:05:58.437Z,8.27
2022-12-28T13:09:05.036Z,8.24
2022-12-28T13:11:37.443Z,8.21
2022-12-28T13:14:05.005Z,8.10
2022-12-28T13:16:32.579Z,8.13
2022-12-28T13:19:05.521Z,8.12
2022-12-28T13:21:43.921Z,8.06
2022-12-28T13:24:38.844Z,7.97
2022-12-28T13:27:18.361Z,8.00
2022-12-28T13:29:52.165Z,7.94
2022-12-28T13:32:36.032Z,7.94
2022-12-28T13:35:17.400Z,7.86
2022-12-28T13:37:43.811Z,7.85
2022-12-28T13:40:11.742Z,7.92
2022-12-28T13:42:54.447Z,7.92
2022-12-28T13:45:21.998Z,7.96
2022-12-28T13:47:51.832Z,7.85
2022-12-28T13:50:24.232Z,7.93
2022-12-28T13:52:59.493Z,7.93
2022-12-28T13:55:37.435Z,7.98
2022-12-28T13:58:09.790Z,7.94
2022-12-28T14:00:38.449Z,7.86
2022-12-28T14:03:11.264Z,8.02
2022-12-28T14:05:44.027Z,8.04
2022-12-28T14:08:11.411Z,8.01
2022-12-28T14:10:37.863Z,8.04
2022-12-28T14:13:04.948Z,8.11
2022-12-28T14:15:39.006Z,8.11
2022-12-28T14:18:08.438Z,8.11
2022-12-28T14:20:50.026Z,8.07
2022-12-28T14:23:20.561Z,8.02
2022-12-28T14:25:47.362Z,7.97
2022-12-28T14:28:21.955Z,7.99
2022-12-28T14:30:54.309Z,7.95
2022-12-28T14:33:27.658Z,7.96
2022-12-28T14:35:57.396Z,8.04
2022-12-28T14:38:29.278Z,8.06
2022-12-28T14:40:58.314Z,8.11
2022-12-28T14:43:27.824Z,7.94
2022-12-28T14:46:06.809Z,7.93
2022-12-28T14:48:40.491Z,7.80
2022-12-28T14:51:17.421Z,7.85
2022-12-28T14:53:45.312Z,7.92
2022-12-28T14:56:18.496Z,7.94
2022-12-28T14:58:59.066Z,8.00
2022-12-28T15:01:38.915Z,7.87
2022-12-28T15:04:05.472Z,7.94
2022-12-28T15:06:32.556Z,7.94
2022-12-28T15:09:01.100Z,7.96
2022-12-28T15:11:29.244Z,7.95
2022-12-28T15:13:56.949Z,7.97
2022-12-28T15:16:23.415Z,7.92
2022-12-28T15:18:49.826Z,8.06
2022-12-28T15:21:18.993Z,7.97
2022-12-28T15:23:53.005Z,8.05
2022-12-28T15:26:20.909Z,7.95
2022-12-28T15:28:47.334Z,7.99
2022-12-28T15:31:17.860Z,7.99
2022-12-28T15:33:45.360Z,7.96
2022-12-28T15:36:18.281Z,7.98
2022-12-28T15:38:46.585Z,7.94
2022-12-28T15:41:32.388Z,7.99
2022-12-28T15:43:58.787Z,8.01
2022-12-28T15:46:25.219Z,8.01
2022-12-28T15:48:51.874Z,7.83
2022-12-28T15:51:19.504Z,7.94
2022-12-28T15:53:48.088Z,7.87
2022-12-28T15:56:27.512Z,7.89
2022-12-28T15:58:55.982Z,7.86
2022-12-28T16:01:23.832Z,7.91
2022-12-28T16:03:55.397Z,7.88
2022-12-28T16:06:22.838Z,7.91
2022-12-28T16:08:54.100Z,7.94
2022-12-28T16:11:23.992Z,8.03
2022-12-28T16:13:53.803Z,8.04
2022-12-28T16:16:22.032Z,8.03
2022-12-28T16:18:50.072Z,8.01
2022-12-28T16:21:18.266Z,8.07
2022-12-28T16:23:45.329Z,8.15
2022-12-28T16:26:13.000Z,8.15
2022-12-28T16:28:40.287Z,8.13
2022-12-28T16:31:07.108Z,8.10
2022-12-28T16:33:33.913Z,8.08
2022-12-28T16:36:00.417Z,8.15
2022-12-28T16:38:28.457Z,8.10
2022-12-28T16:40:56.172Z,8.16
2022-12-28T16:43:22.788Z,8.15
2022-12-28T16:45:49.560Z,8.10
2022-12-28T16:48:16.450Z,8.17
2022-12-28T16:50:43.032Z,8.17
2022-12-28T16:53:09.615Z,8.12
2022-12-28T16:55:41.526Z,8.11
2022-12-28T16:58:09.326Z,8.12
2022-12-28T17:00:35.891Z,8.12
2022-12-28T17:03:02.527Z,8.16
2022-12-28T17:05:34.128Z,8.19
2022-12-28T17:08:01.076Z,8.14
2022-12-28T17:10:27.653Z,8.19
2022-12-28T17:12:54.014Z,8.17
2022-12-28T17:15:20.471Z,8.12
2022-12-28T17:17:46.844Z,8.05
2022-12-28T17:20:13.298Z,8.08
2022-12-28T17:22:39.653Z,8.09
2022-12-28T17:25:07.061Z,8.14
2022-12-28T17:27:33.940Z,8.11
2022-12-28T17:30:00.428Z,8.07
2022-12-28T17:32:27.022Z,8.07
2022-12-28T17:34:53.535Z,8.07
2022-12-28T17:37:19.933Z,8.10
2022-12-28T17:39:46.320Z,8.12
2022-12-28T17:42:12.707Z,8.11
2022-12-28T17:44:39.133Z,8.08
2022-12-28T17:47:05.614Z,8.20
2022-12-28T17:49:32.094Z,8.20
2022-12-28T17:51:58.474Z,8.25
2022-12-28T17:54:24.891Z,8.22
2022-12-28T17:56:51.262Z,8.21
2022-12-28T17:59:17.653Z,8.30
2022-12-28T18:01:44.430Z,8.29
2022-12-28T18:04:12.017Z,8.27
2022-12-28T18:06:38.907Z,8.35
2022-12-28T18:09:05.346Z,8.33
2022-12-28T18:11:31.790Z,8.30
2022-12-28T18:13:59.102Z,8.33
2022-12-28T18:16:26.531Z,8.33
2022-12-28T18:18:53.587Z,8.37
2022-12-28T18:21:23.046Z,8.41
2022-12-28T18:23:52.581Z,8.33
2022-12-28T18:26:21.955Z,8.35
2022-12-28T18:28:48.614Z,8.39
2022-12-28T18:31:15.298Z,8.32
2022-12-28T18:33:41.798Z,8.29
2022-12-28T18:36:16.807Z,8.27
2022-12-28T18:38:45.648Z,8.31
2022-12-28T18:41:14.199Z,8.30
2022-12-28T18:43:40.820Z,8.33
2022-12-28T18:46:08.918Z,8.29
2022-12-28T18:48:38.679Z,8.29
2022-12-28T18:51:20.069Z,8.28
2022-12-28T18:53:47.093Z,8.29
2022-12-28T18:56:15.967Z,8.27
2022-12-28T18:58:43.709Z,8.25
2022-12-28T19:01:55.475Z,8.27
2022-12-28T19:04:05.691Z,8.19
2022-12-28T19:06:32.711Z,8.24
2022-12-28T19:09:00.653Z,8.23
2022-12-28T19:11:27.545Z,8.20
2022-12-28T19:13:53.952Z,8.17
2022-12-28T19:16:26.993Z,8.15
2022-12-28T19:18:56.994Z,8.10
2022-12-28T19:21:32.195Z,8.10
2022-12-28T19:23:59.833Z,8.05
2022-12-28T19:26:26.210Z,8.06
2022-12-28T19:28:52.879Z,8.04
2022-12-28T19:31:19.446Z,8.02
2022-12-28T19:33:46.671Z,8.04
2022-12-28T19:36:13.228Z,8.01
2022-12-28T19:38:39.665Z,8.03
2022-12-28T19:41:09.699Z,8.05
2022-12-28T19:43:37.014Z,8.01
2022-12-28T19:46:30.499Z,8.01
2022-12-28T19:49:02.098Z,8.04
2022-12-28T19:51:31.591Z,8.02
2022-12-28T19:53:58.388Z,8.04
2022-12-28T19:56:24.787Z,8.08
2022-12-28T19:58:51.198Z,8.11
2022-12-28T20:01:20.885Z,8.14
2022-12-28T20:03:48.164Z,8.17
2022-12-28T20:06:21.737Z,8.14
2022-12-28T20:08:52.794Z,8.19
2022-12-28T20:11:20.231Z,8.17
2022-12-28T20:13:51.681Z,8.17
2022-12-28T20:16:19.012Z,8.16
2022-12-28T20:18:47.120Z,8.13
2022-12-28T20:21:21.816Z,8.14
2022-12-28T20:23:49.775Z,8.20
2022-12-28T20:26:17.398Z,8.22
2022-12-28T20:28:44.659Z,8.26
2022-12-28T20:31:14.219Z,8.35
2022-12-28T20:33:41.768Z,8.38
2022-12-28T20:36:12.319Z,8.41
2022-12-28T20:38:39.117Z,8.43
2022-12-28T20:41:34.474Z,8.45
2022-12-28T20:44:03.588Z,8.47
2022-12-28T20:46:30.269Z,8.49
2022-12-28T20:48:56.660Z,8.54
2022-12-28T20:51:23.154Z,8.59
2022-12-28T20:53:49.567Z,8.59
2022-12-28T20:56:15.935Z,8.63
2022-12-28T20:58:42.717Z,8.63
2022-12-28T21:01:12.547Z,8.66
2022-12-28T21:03:39.439Z,8.66
2022-12-28T21:06:06.325Z,8.71
2022-12-28T21:08:33.669Z,8.70
2022-12-28T21:11:00.787Z,8.70
2022-12-28T21:13:27.790Z,8.77
2022-12-28T21:15:54.605Z,8.82
2022-12-28T21:18:21.388Z,8.88
2022-12-28T21:20:55.367Z,8.89
2022-12-28T21:23:21.822Z,8.88
2022-12-28T21:25:48.340Z,8.89
2022-12-28T21:28:15.100Z,8.89
2022-12-28T21:30:41.564Z,8.92
2022-12-28T21:33:08.382Z,8.96
2022-12-28T21:35:35.040Z,8.98
2022-12-28T21:38:01.893Z,9.08
2022-12-28T21:40:28.504Z,9.05
2022-12-28T21:42:54.849Z,9.08
2022-12-28T21:45:21.415Z,9.10
2022-12-28T21:47:47.824Z,9.13
2022-12-28T21:50:14.311Z,9.15
2022-12-28T21:52:40.695Z,9.15
2022-12-28T21:55:26.063Z,9.12
2022-12-28T21:57:53.801Z,9.24
2022-12-28T22:00:39.637Z,9.28
2022-12-28T22:03:25.059Z,9.34
2022-12-28T22:05:51.510Z,9.33
2022-12-28T22:08:36.188Z,9.34
2022-12-28T22:11:20.993Z,9.33
2022-12-28T22:13:47.441Z,9.39
2022-12-28T22:16:13.886Z,9.37
2022-12-28T22:21:27.693Z,9.45
2022-12-28T22:23:55.036Z,9.46
2022-12-28T22:26:22.086Z,9.44
2022-12-28T22:28:48.743Z,9.49
2022-12-28T22:31:15.407Z,9.52
2022-12-28T22:33:42.005Z,9.49
2022-12-28T22:36:13.313Z,9.53
2022-12-28T22:38:39.732Z,9.54
2022-12-28T22:41:06.772Z,9.50
2022-12-28T22:43:33.488Z,9.58
2022-12-28T22:46:05.891Z,9.64
2022-12-28T22:48:33.187Z,9.65
2022-12-28T22:51:11.313Z,9.67
2022-12-28T22:53:38.190Z,9.67
2022-12-28T22:56:07.189Z,9.70
2022-12-28T22:58:33.972Z,9.68
2022-12-28T23:01:04.508Z,9.70
2022-12-28T23:03:31.198Z,9.71
2022-12-28T23:05:57.638Z,9.72
2022-12-28T23:08:23.989Z,9.76
2022-12-28T23:10:55.585Z,9.77
2022-12-28T23:13:22.027Z,9.79
2022-12-28T23:16:04.088Z,9.72
2022-12-28T23:18:49.608Z,9.77
2022-12-28T23:21:36.483Z,9.75
2022-12-28T23:24:21.744Z,9.74
2022-12-28T23:27:06.574Z,9.71
2022-12-28T23:29:33.061Z,9.71
2022-12-28T23:32:00.303Z,9.73
2022-12-28T23:34:26.776Z,9.68
2022-12-28T23:36:53.354Z,9.69
2022-12-28T23:39:19.810Z,9.65
2022-12-28T23:41:48.742Z,9.69
2022-12-28T23:44:23.608Z,9.70
2022-12-28T23:46:58.299Z,9.69
2022-12-28T23:49:25.652Z,9.66
2022-12-28T23:51:52.061Z,9.72
2022-12-28T23:54:19.405Z,9.77
2022-12-28T23:56:46.423Z,9.76
2022-12-28T23:59:15.115Z,9.71
